AIC699 VNKT-VCBI
Flight info
| Callsign | AIC699 |
|---|---|
| Flight time | N/A |
| Altitude | 33000 |
| Route | IGRIS1E LALBA R325 DUMKA/N0505F340 V41 GOSBI B209 DGP J26 VVZ A465 SAGOR SAGOR2A |
| Aircraft | B77W/H-SDE1E2E3FGHIJ2J3J4J5M1RWXY/LB1D1 |
Departure
| Time | 2026-05-07 20:39 |
|---|---|
| Airport | Tribhuvan International Airport (VNKT) |
Arrival
| Time | N/A |
|---|---|
| Airport | Bandaranaike International Colombo Airport (VCBI) |
| Time | Latitude | Longitude | Altitude | Speed | Heading |
|---|---|---|---|---|---|
| 2026-05-07 19:34 | 27.70143 | 85.35928 | 4434 ft | 0 kts | 291° |
| 2026-05-07 20:19 | 27.70144 | 85.35928 | 4433 ft | 0 kts | 291° |
| 2026-05-07 20:20 | 27.70143 | 85.35928 | 4433 ft | 0 kts | 291° |
| 2026-05-07 20:20 | 27.70139 | 85.35939 | 4433 ft | 2 kts | 291° |
| 2026-05-07 20:20 | 27.70131 | 85.35965 | 4434 ft | 3 kts | 289° |
| 2026-05-07 20:21 | 27.70127 | 85.35986 | 4434 ft | 2 kts | 261° |
| 2026-05-07 20:21 | 27.70134 | 85.36005 | 4434 ft | 2 kts | 231° |
| 2026-05-07 20:21 | 27.70149 | 85.36018 | 4434 ft | 3 kts | 203° |
| 2026-05-07 20:21 | 27.70164 | 85.36025 | 4435 ft | 0 kts | 199° |
| 2026-05-07 20:27 | 27.70135 | 85.36013 | 4434 ft | 9 kts | 200° |
| 2026-05-07 20:27 | 27.70059 | 85.35980 | 4433 ft | 13 kts | 201° |
| 2026-05-07 20:27 | 27.69957 | 85.35933 | 4429 ft | 17 kts | 201° |
| 2026-05-07 20:28 | 27.69840 | 85.35880 | 4423 ft | 18 kts | 202° |
| 2026-05-07 20:28 | 27.69725 | 85.35828 | 4415 ft | 18 kts | 202° |
| 2026-05-07 20:28 | 27.69602 | 85.35772 | 4405 ft | 19 kts | 201° |
| 2026-05-07 20:28 | 27.69474 | 85.35712 | 4394 ft | 18 kts | 202° |
| 2026-05-07 20:29 | 27.69368 | 85.35664 | 4388 ft | 15 kts | 202° |
| 2026-05-07 20:29 | 27.69262 | 85.35616 | 4377 ft | 17 kts | 202° |
| 2026-05-07 20:29 | 27.69174 | 85.35575 | 4372 ft | 3 kts | 202° |
| 2026-05-07 20:29 | 27.69173 | 85.35574 | 4372 ft | 0 kts | 201° |
| 2026-05-07 20:34 | 27.69152 | 85.35565 | 4370 ft | 7 kts | 201° |
| 2026-05-07 20:34 | 27.69093 | 85.35567 | 4367 ft | 9 kts | 142° |
| 2026-05-07 20:34 | 27.69061 | 85.35616 | 4368 ft | 5 kts | 139° |
| 2026-05-07 20:35 | 27.68998 | 85.35612 | 4365 ft | 16 kts | 198° |
| 2026-05-07 20:35 | 27.68827 | 85.35537 | 4358 ft | 35 kts | 202° |
| 2026-05-07 20:35 | 27.68593 | 85.35431 | 4353 ft | 33 kts | 201° |
| 2026-05-07 20:35 | 27.68406 | 85.35345 | 4351 ft | 21 kts | 202° |
| 2026-05-07 20:36 | 27.68329 | 85.35300 | 4351 ft | 7 kts | 223° |
| 2026-05-07 20:36 | 27.68295 | 85.35252 | 4350 ft | 8 kts | 233° |
| 2026-05-07 20:36 | 27.68244 | 85.35201 | 4350 ft | 9 kts | 205° |
| 2026-05-07 20:36 | 27.68187 | 85.35196 | 4350 ft | 6 kts | 148° |
| 2026-05-07 20:37 | 27.68181 | 85.35234 | 4350 ft | 5 kts | 57° |
| 2026-05-07 20:37 | 27.68210 | 85.35255 | 4350 ft | 0 kts | 24° |
| 2026-05-07 20:37 | 27.68229 | 85.35264 | 4350 ft | 13 kts | 24° |
| 2026-05-07 20:38 | 27.68497 | 85.35387 | 4351 ft | 72 kts | 22° |
| 2026-05-07 20:38 | 27.69149 | 85.35683 | 4375 ft | 127 kts | 22° |
| 2026-05-07 20:38 | 27.70116 | 85.36123 | 4432 ft | 171 kts | 21° |
| 2026-05-07 20:38 | 27.71264 | 85.36643 | 4885 ft | 178 kts | 21° |
| 2026-05-07 20:39 | 27.72521 | 85.36795 | 5336 ft | 194 kts | 346° |
| 2026-05-07 20:39 | 27.73669 | 85.35957 | 5875 ft | 208 kts | 305° |
| 2026-05-07 20:39 | 27.74143 | 85.34422 | 6521 ft | 213 kts | 270° |
| 2026-05-07 20:39 | 27.73827 | 85.32834 | 7202 ft | 216 kts | 239° |
| 2026-05-07 20:40 | 27.72734 | 85.31654 | 7619 ft | 230 kts | 200° |
| 2026-05-07 20:40 | 27.71166 | 85.31463 | 8218 ft | 231 kts | 165° |
| 2026-05-07 20:40 | 27.69699 | 85.32198 | 8839 ft | 235 kts | 142° |
| 2026-05-07 20:40 | 27.68466 | 85.33465 | 9421 ft | 242 kts | 126° |
| 2026-05-07 20:41 | 27.67494 | 85.35055 | 9906 ft | 257 kts | 113° |
| 2026-05-07 20:41 | 27.66851 | 85.36995 | 10456 ft | 271 kts | 104° |
| 2026-05-07 20:41 | 27.66342 | 85.39105 | 10892 ft | 292 kts | 103° |
| 2026-05-07 20:41 | 27.65815 | 85.41376 | 11469 ft | 309 kts | 103° |
| 2026-05-07 20:42 | 27.65253 | 85.43774 | 12046 ft | 326 kts | 103° |
| 2026-05-07 20:42 | 27.64646 | 85.46345 | 12585 ft | 344 kts | 103° |
| 2026-05-07 20:42 | 27.63951 | 85.48938 | 13092 ft | 357 kts | 110° |
| 2026-05-07 20:42 | 27.62851 | 85.51527 | 13456 ft | 371 kts | 120° |
| 2026-05-07 20:43 | 27.61319 | 85.53942 | 13766 ft | 388 kts | 130° |
| 2026-05-07 20:43 | 27.59343 | 85.56078 | 14170 ft | 400 kts | 141° |
| 2026-05-07 20:43 | 27.56998 | 85.57804 | 14525 ft | 414 kts | 152° |
| 2026-05-07 20:43 | 27.54282 | 85.59038 | 15160 ft | 419 kts | 163° |
| 2026-05-07 20:44 | 27.51460 | 85.59645 | 15982 ft | 418 kts | 175° |
| 2026-05-07 20:44 | 27.48543 | 85.59663 | 16634 ft | 421 kts | 186° |
| 2026-05-07 20:44 | 27.45616 | 85.59305 | 17219 ft | 426 kts | 184° |
| 2026-05-07 20:44 | 27.42650 | 85.59412 | 17860 ft | 430 kts | 174° |
| 2026-05-07 20:45 | 27.39691 | 85.60054 | 18492 ft | 435 kts | 167° |
| 2026-05-07 20:45 | 27.36751 | 85.60976 | 19090 ft | 440 kts | 164° |
| 2026-05-07 20:45 | 27.33844 | 85.62051 | 19713 ft | 444 kts | 162° |
| 2026-05-07 20:45 | 27.30950 | 85.63236 | 20324 ft | 448 kts | 160° |
| 2026-05-07 20:46 | 27.28023 | 85.64515 | 20967 ft | 451 kts | 159° |
| 2026-05-07 20:46 | 27.25095 | 85.65846 | 21558 ft | 455 kts | 159° |
| 2026-05-07 20:46 | 27.22158 | 85.67219 | 22130 ft | 459 kts | 159° |
| 2026-05-07 20:46 | 27.19228 | 85.68614 | 22681 ft | 464 kts | 159° |
| 2026-05-07 20:47 | 27.16217 | 85.70067 | 23249 ft | 467 kts | 159° |
| 2026-05-07 20:47 | 27.13227 | 85.71522 | 23795 ft | 471 kts | 159° |
| 2026-05-07 20:47 | 27.10235 | 85.72987 | 24294 ft | 475 kts | 158° |
| 2026-05-07 20:47 | 27.07208 | 85.74475 | 24787 ft | 479 kts | 158° |
| 2026-05-07 20:48 | 27.04134 | 85.75990 | 25310 ft | 482 kts | 158° |
| 2026-05-07 20:48 | 27.01046 | 85.77515 | 25820 ft | 485 kts | 158° |
| 2026-05-07 20:48 | 26.97950 | 85.79045 | 26282 ft | 489 kts | 158° |
| 2026-05-07 20:48 | 26.94861 | 85.80573 | 26663 ft | 494 kts | 158° |
| 2026-05-07 20:49 | 26.91674 | 85.82142 | 27080 ft | 498 kts | 158° |
| 2026-05-07 20:49 | 26.88510 | 85.83692 | 27532 ft | 502 kts | 158° |
| 2026-05-07 20:49 | 26.85299 | 85.85265 | 27996 ft | 504 kts | 158° |
| 2026-05-07 20:49 | 26.82051 | 85.86858 | 28402 ft | 508 kts | 159° |
| 2026-05-07 20:50 | 26.78805 | 85.88448 | 28777 ft | 512 kts | 159° |
| 2026-05-07 20:50 | 26.75522 | 85.90055 | 29211 ft | 515 kts | 159° |
| 2026-05-07 20:50 | 26.72191 | 85.91685 | 29741 ft | 514 kts | 159° |
| 2026-05-07 20:50 | 26.68921 | 85.93359 | 30359 ft | 513 kts | 156° |
| 2026-05-07 20:51 | 26.65740 | 85.95258 | 30992 ft | 510 kts | 156° |
| 2026-05-07 20:51 | 26.62592 | 85.97118 | 31505 ft | 507 kts | 158° |
| 2026-05-07 20:51 | 26.59426 | 85.98907 | 31898 ft | 508 kts | 159° |
| 2026-05-07 20:51 | 26.56209 | 86.00711 | 32319 ft | 507 kts | 159° |
| 2026-05-07 20:52 | 26.53019 | 86.02495 | 32738 ft | 506 kts | 159° |
| 2026-05-07 20:52 | 26.46645 | 86.06051 | 32831 ft | 504 kts | 159° |
| 2026-05-07 20:53 | 26.40324 | 86.09567 | 32832 ft | 504 kts | 160° |
| 2026-05-07 20:53 | 26.33949 | 86.13105 | 32816 ft | 504 kts | 160° |
| 2026-05-07 20:54 | 26.27629 | 86.16609 | 32818 ft | 504 kts | 160° |
| 2026-05-07 20:54 | 26.21261 | 86.20132 | 32818 ft | 502 kts | 160° |
| 2026-05-07 20:55 | 26.14931 | 86.23631 | 32817 ft | 503 kts | 160° |
| 2026-05-07 20:55 | 26.08610 | 86.27119 | 32818 ft | 501 kts | 160° |
| 2026-05-07 20:56 | 26.02274 | 86.30611 | 32819 ft | 503 kts | 160° |
| 2026-05-07 20:56 | 25.95955 | 86.34090 | 32806 ft | 501 kts | 160° |
| 2026-05-07 20:57 | 25.89317 | 86.37741 | 32811 ft | 501 kts | 160° |
| 2026-05-07 20:57 | 25.82343 | 86.41574 | 32820 ft | 502 kts | 160° |
| 2026-05-07 20:58 | 25.75489 | 86.45511 | 32817 ft | 501 kts | 160° |
| 2026-05-07 20:58 | 25.68693 | 86.49422 | 32825 ft | 502 kts | 160° |
| 2026-05-07 20:59 | 25.61830 | 86.53361 | 32814 ft | 501 kts | 160° |
| 2026-05-07 20:59 | 25.55033 | 86.57256 | 32825 ft | 498 kts | 160° |
| 2026-05-07 21:00 | 25.48162 | 86.61182 | 32822 ft | 499 kts | 160° |
| 2026-05-07 21:00 | 25.41406 | 86.65041 | 32822 ft | 496 kts | 161° |
| 2026-05-07 21:01 | 25.34589 | 86.68926 | 32812 ft | 496 kts | 161° |
| 2026-05-07 21:01 | 25.27937 | 86.72714 | 32801 ft | 495 kts | 161° |
| 2026-05-07 21:02 | 25.21044 | 86.76633 | 32808 ft | 495 kts | 161° |
| 2026-05-07 21:02 | 25.14979 | 86.80151 | 32816 ft | 495 kts | 161° |
| 2026-05-07 21:03 | 25.08871 | 86.83698 | 32816 ft | 493 kts | 161° |
| 2026-05-07 21:03 | 25.02826 | 86.87206 | 32818 ft | 489 kts | 162° |
| 2026-05-07 21:04 | 24.96795 | 86.90695 | 32823 ft | 491 kts | 162° |
| 2026-05-07 21:04 | 24.90752 | 86.94187 | 32818 ft | 494 kts | 162° |
| 2026-05-07 21:05 | 24.84687 | 86.97692 | 32834 ft | 491 kts | 162° |
| 2026-05-07 21:05 | 24.78598 | 87.01202 | 32832 ft | 494 kts | 161° |
| 2026-05-07 21:06 | 24.72502 | 87.04716 | 32839 ft | 494 kts | 162° |
| 2026-05-07 21:06 | 24.66425 | 87.08213 | 32838 ft | 493 kts | 161° |
| 2026-05-07 21:07 | 24.60321 | 87.11719 | 32843 ft | 496 kts | 161° |
| 2026-05-07 21:07 | 24.54227 | 87.15218 | 32850 ft | 497 kts | 161° |
| 2026-05-07 21:08 | 24.48094 | 87.18665 | 32857 ft | 494 kts | 162° |
| 2026-05-07 21:08 | 24.41921 | 87.22118 | 32857 ft | 500 kts | 162° |
| 2026-05-07 21:09 | 24.35743 | 87.25577 | 32858 ft | 498 kts | 161° |
| 2026-05-07 21:09 | 24.29577 | 87.29027 | 32851 ft | 496 kts | 161° |
| 2026-05-07 21:10 | 24.23386 | 87.32423 | 32860 ft | 496 kts | 165° |
| 2026-05-07 21:10 | 24.16876 | 87.34342 | 32852 ft | 475 kts | 181° |
| 2026-05-07 21:10 | 24.13638 | 87.34519 | 32854 ft | 463 kts | 189° |
| 2026-05-07 21:11 | 24.10420 | 87.34254 | 32852 ft | 458 kts | 193° |
| 2026-05-07 21:11 | 24.00880 | 87.33092 | 32843 ft | 459 kts | 193° |
| 2026-05-07 21:12 | 23.94522 | 87.32307 | 32838 ft | 462 kts | 194° |
| 2026-05-07 21:12 | 23.88120 | 87.31519 | 32839 ft | 459 kts | 194° |
| 2026-05-07 21:13 | 23.81759 | 87.30732 | 32837 ft | 462 kts | 194° |
| 2026-05-07 21:13 | 23.75396 | 87.29860 | 32829 ft | 455 kts | 198° |
| 2026-05-07 21:14 | 23.69467 | 87.27646 | 32835 ft | 447 kts | 212° |
| 2026-05-07 21:14 | 23.64162 | 87.24218 | 32835 ft | 439 kts | 216° |
| 2026-05-07 21:15 | 23.58925 | 87.20787 | 32835 ft | 442 kts | 216° |
| 2026-05-07 21:15 | 23.53617 | 87.17361 | 32834 ft | 441 kts | 216° |
| 2026-05-07 21:16 | 23.48277 | 87.13985 | 32834 ft | 445 kts | 215° |
| 2026-05-07 21:16 | 23.42932 | 87.10648 | 32835 ft | 444 kts | 215° |
| 2026-05-07 21:17 | 23.37582 | 87.07327 | 32834 ft | 442 kts | 214° |
| 2026-05-07 21:17 | 23.32214 | 87.04005 | 32835 ft | 446 kts | 214° |
| 2026-05-07 21:18 | 23.26834 | 87.00686 | 32836 ft | 444 kts | 214° |
| 2026-05-07 21:18 | 23.21440 | 86.97362 | 32835 ft | 446 kts | 214° |
| 2026-05-07 21:19 | 23.16056 | 86.94051 | 32832 ft | 445 kts | 214° |
| 2026-05-07 21:19 | 23.10635 | 86.90719 | 32832 ft | 447 kts | 214° |
| 2026-05-07 21:20 | 23.05221 | 86.87395 | 32833 ft | 448 kts | 214° |
| 2026-05-07 21:20 | 22.99810 | 86.84077 | 32831 ft | 448 kts | 214° |
| 2026-05-07 21:21 | 22.94379 | 86.80750 | 32833 ft | 447 kts | 214° |
| 2026-05-07 21:21 | 22.88966 | 86.77436 | 32840 ft | 448 kts | 214° |
| 2026-05-07 21:22 | 22.83517 | 86.74103 | 32847 ft | 448 kts | 214° |
| 2026-05-07 21:22 | 22.78111 | 86.70800 | 32846 ft | 447 kts | 214° |
| 2026-05-07 21:23 | 22.72651 | 86.67467 | 32853 ft | 450 kts | 214° |
| 2026-05-07 21:23 | 22.67226 | 86.64159 | 32852 ft | 448 kts | 214° |
| 2026-05-07 21:24 | 22.61787 | 86.60844 | 32844 ft | 449 kts | 214° |
| 2026-05-07 21:24 | 22.56326 | 86.57519 | 32841 ft | 450 kts | 214° |
| 2026-05-07 21:25 | 22.50864 | 86.54198 | 32835 ft | 449 kts | 214° |
| 2026-05-07 21:25 | 22.45414 | 86.50876 | 32837 ft | 452 kts | 214° |
| 2026-05-07 21:26 | 22.39992 | 86.47525 | 32839 ft | 448 kts | 214° |
| 2026-05-07 21:26 | 22.34540 | 86.44157 | 32837 ft | 451 kts | 214° |
| 2026-05-07 21:27 | 22.29086 | 86.40793 | 32848 ft | 451 kts | 214° |
| 2026-05-07 21:27 | 22.23652 | 86.37445 | 32854 ft | 451 kts | 214° |
| 2026-05-07 21:28 | 22.18193 | 86.34086 | 32883 ft | 453 kts | 213° |
| 2026-05-07 21:28 | 22.12725 | 86.30724 | 32897 ft | 452 kts | 214° |
| 2026-05-07 21:29 | 22.07245 | 86.27357 | 32915 ft | 455 kts | 213° |
| 2026-05-07 21:29 | 22.01755 | 86.23989 | 32932 ft | 454 kts | 213° |
| 2026-05-07 21:30 | 21.96257 | 86.20618 | 32938 ft | 455 kts | 213° |
| 2026-05-07 21:30 | 21.90757 | 86.17249 | 32931 ft | 454 kts | 213° |
| 2026-05-07 21:31 | 21.85237 | 86.13870 | 32936 ft | 456 kts | 213° |
| 2026-05-07 21:31 | 21.79746 | 86.10513 | 32935 ft | 454 kts | 213° |
| 2026-05-07 21:32 | 21.74225 | 86.07140 | 32925 ft | 456 kts | 213° |
| 2026-05-07 21:32 | 21.68718 | 86.03779 | 32902 ft | 457 kts | 213° |
| 2026-05-07 21:33 | 21.63214 | 86.00423 | 32888 ft | 454 kts | 213° |
| 2026-05-07 21:33 | 21.57722 | 85.97076 | 32878 ft | 455 kts | 213° |
| 2026-05-07 21:34 | 21.52301 | 85.93622 | 32887 ft | 453 kts | 216° |
| 2026-05-07 21:34 | 21.46985 | 85.89957 | 32886 ft | 453 kts | 216° |
| 2026-05-07 21:35 | 21.41662 | 85.86305 | 32886 ft | 454 kts | 216° |
| 2026-05-07 21:35 | 21.36334 | 85.82666 | 32889 ft | 455 kts | 216° |
| 2026-05-07 21:36 | 21.30963 | 85.79006 | 32888 ft | 456 kts | 216° |
| 2026-05-07 21:36 | 21.25627 | 85.75377 | 32893 ft | 456 kts | 216° |
| 2026-05-07 21:37 | 21.20264 | 85.71733 | 32886 ft | 456 kts | 216° |
| 2026-05-07 21:37 | 21.14914 | 85.68102 | 32873 ft | 456 kts | 216° |
| 2026-05-07 21:38 | 21.09542 | 85.64460 | 32863 ft | 456 kts | 216° |
| 2026-05-07 21:38 | 21.04196 | 85.60840 | 32858 ft | 456 kts | 216° |
| 2026-05-07 21:39 | 20.98811 | 85.57195 | 32845 ft | 457 kts | 215° |
| 2026-05-07 21:39 | 20.93432 | 85.53558 | 32848 ft | 458 kts | 216° |
| 2026-05-07 21:40 | 20.88045 | 85.49919 | 32848 ft | 458 kts | 216° |
| 2026-05-07 21:40 | 20.82252 | 85.45988 | 32844 ft | 459 kts | 216° |
| 2026-05-07 21:41 | 20.76325 | 85.41927 | 32842 ft | 460 kts | 216° |
| 2026-05-07 21:41 | 20.70412 | 85.37882 | 32851 ft | 460 kts | 216° |
| 2026-05-07 21:42 | 20.64448 | 85.33807 | 32870 ft | 462 kts | 216° |
| 2026-05-07 21:42 | 20.58484 | 85.29736 | 32873 ft | 462 kts | 215° |
| 2026-05-07 21:43 | 20.52545 | 85.25687 | 32878 ft | 463 kts | 216° |
| 2026-05-07 21:43 | 20.46798 | 85.21773 | 32869 ft | 463 kts | 215° |
| 2026-05-07 21:44 | 20.41246 | 85.17994 | 32854 ft | 464 kts | 215° |
| 2026-05-07 21:44 | 20.35686 | 85.14214 | 32850 ft | 465 kts | 215° |
| 2026-05-07 21:45 | 20.30212 | 85.10495 | 32850 ft | 466 kts | 215° |
| 2026-05-07 21:45 | 20.24744 | 85.06783 | 32858 ft | 466 kts | 215° |
| 2026-05-07 21:46 | 20.19267 | 85.03069 | 32862 ft | 467 kts | 215° |
| 2026-05-07 21:46 | 20.13815 | 84.99374 | 32861 ft | 467 kts | 215° |
| 2026-05-07 21:47 | 20.08309 | 84.95647 | 32861 ft | 467 kts | 215° |
| 2026-05-07 21:47 | 20.02836 | 84.91944 | 32865 ft | 467 kts | 215° |
| 2026-05-07 21:48 | 19.97364 | 84.88246 | 32871 ft | 468 kts | 215° |
| 2026-05-07 21:48 | 19.91840 | 84.84515 | 32871 ft | 469 kts | 215° |
| 2026-05-07 21:49 | 19.86357 | 84.80815 | 32873 ft | 470 kts | 215° |
| 2026-05-07 21:49 | 19.80812 | 84.77077 | 32865 ft | 470 kts | 215° |
| 2026-05-07 21:50 | 19.75320 | 84.73377 | 32860 ft | 470 kts | 215° |
| 2026-05-07 21:50 | 19.69791 | 84.69656 | 32861 ft | 470 kts | 215° |
| 2026-05-07 21:51 | 19.64288 | 84.65917 | 32868 ft | 469 kts | 216° |
| 2026-05-07 21:51 | 19.58877 | 84.62017 | 32874 ft | 469 kts | 217° |
| 2026-05-07 21:52 | 19.53495 | 84.58143 | 32879 ft | 470 kts | 217° |
| 2026-05-07 21:52 | 19.48056 | 84.54239 | 32882 ft | 470 kts | 217° |
| 2026-05-07 21:53 | 19.42643 | 84.50360 | 32879 ft | 471 kts | 217° |
| 2026-05-07 21:53 | 19.37229 | 84.46487 | 32880 ft | 471 kts | 217° |
| 2026-05-07 21:54 | 19.31786 | 84.42596 | 32885 ft | 471 kts | 217° |
| 2026-05-07 21:54 | 19.26351 | 84.38716 | 32883 ft | 472 kts | 217° |
| 2026-05-07 21:55 | 19.20906 | 84.34831 | 32899 ft | 473 kts | 216° |
| 2026-05-07 21:55 | 19.15463 | 84.30952 | 32925 ft | 472 kts | 216° |
| 2026-05-07 21:56 | 19.09994 | 84.27057 | 32939 ft | 474 kts | 216° |
| 2026-05-07 21:56 | 19.04525 | 84.23165 | 32961 ft | 473 kts | 216° |
| 2026-05-07 21:57 | 18.99077 | 84.19292 | 32954 ft | 474 kts | 216° |
| 2026-05-07 21:57 | 18.93592 | 84.15395 | 32926 ft | 474 kts | 216° |
| 2026-05-07 21:58 | 18.88127 | 84.11516 | 32905 ft | 473 kts | 216° |
| 2026-05-07 21:58 | 18.82601 | 84.07596 | 32888 ft | 474 kts | 216° |
| 2026-05-07 21:59 | 18.77062 | 84.03670 | 32873 ft | 474 kts | 216° |
| 2026-05-07 21:59 | 18.71506 | 83.99735 | 32868 ft | 475 kts | 216° |
| 2026-05-07 22:00 | 18.65952 | 83.95805 | 32872 ft | 475 kts | 216° |
| 2026-05-07 22:00 | 18.60373 | 83.91861 | 32877 ft | 475 kts | 216° |
| 2026-05-07 22:01 | 18.54832 | 83.87946 | 32880 ft | 475 kts | 216° |
| 2026-05-07 22:01 | 18.49315 | 83.84030 | 32863 ft | 474 kts | 216° |
| 2026-05-07 22:02 | 18.43774 | 83.80055 | 32856 ft | 475 kts | 217° |
| 2026-05-07 22:02 | 18.38244 | 83.76094 | 32854 ft | 475 kts | 216° |
| 2026-05-07 22:03 | 18.32698 | 83.72125 | 32854 ft | 476 kts | 216° |
| 2026-05-07 22:03 | 18.27152 | 83.68160 | 32856 ft | 476 kts | 217° |
| 2026-05-07 22:04 | 18.21640 | 83.64224 | 32856 ft | 476 kts | 217° |
| 2026-05-07 22:04 | 18.16158 | 83.60312 | 32849 ft | 476 kts | 216° |
| 2026-05-07 22:05 | 18.10657 | 83.56390 | 32850 ft | 476 kts | 216° |
| 2026-05-07 22:05 | 18.05187 | 83.52492 | 32844 ft | 476 kts | 216° |
| 2026-05-07 22:06 | 17.99683 | 83.48573 | 32844 ft | 477 kts | 216° |
| 2026-05-07 22:06 | 17.94199 | 83.44672 | 32837 ft | 477 kts | 216° |
| 2026-05-07 22:07 | 17.88691 | 83.40756 | 32836 ft | 479 kts | 216° |
| 2026-05-07 22:07 | 17.83169 | 83.36834 | 32844 ft | 478 kts | 216° |
| 2026-05-07 22:08 | 17.77661 | 83.32924 | 32859 ft | 479 kts | 216° |
| 2026-05-07 22:08 | 17.72138 | 83.29007 | 32860 ft | 479 kts | 216° |
| 2026-05-07 22:09 | 17.66627 | 83.25101 | 32860 ft | 479 kts | 216° |
| 2026-05-07 22:09 | 17.61057 | 83.21312 | 32859 ft | 479 kts | 214° |
| 2026-05-07 22:10 | 17.55436 | 83.17523 | 32851 ft | 480 kts | 215° |
| 2026-05-07 22:10 | 17.49827 | 83.13740 | 32842 ft | 480 kts | 214° |
| 2026-05-07 22:11 | 17.44215 | 83.09953 | 32842 ft | 481 kts | 214° |
| 2026-05-07 22:11 | 17.38571 | 83.06148 | 32839 ft | 480 kts | 214° |
| 2026-05-07 22:12 | 17.32938 | 83.02350 | 32833 ft | 481 kts | 215° |
| 2026-05-07 22:12 | 17.27288 | 82.98544 | 32834 ft | 481 kts | 215° |
| 2026-05-07 22:13 | 17.21537 | 82.94672 | 32831 ft | 482 kts | 215° |
| 2026-05-07 22:13 | 17.15910 | 82.90887 | 32824 ft | 481 kts | 214° |
| 2026-05-07 22:14 | 17.10304 | 82.87118 | 32825 ft | 481 kts | 214° |
| 2026-05-07 22:14 | 17.04645 | 82.83315 | 32821 ft | 481 kts | 214° |
| 2026-05-07 22:15 | 16.98666 | 82.79301 | 32820 ft | 482 kts | 214° |
| 2026-05-07 22:15 | 16.92412 | 82.75107 | 32819 ft | 482 kts | 214° |
| 2026-05-07 22:16 | 16.86142 | 82.70905 | 32820 ft | 483 kts | 214° |
| 2026-05-07 22:16 | 16.80368 | 82.67038 | 32818 ft | 483 kts | 214° |
| 2026-05-07 22:17 | 16.74540 | 82.63140 | 32818 ft | 483 kts | 214° |
| 2026-05-07 22:17 | 16.68268 | 82.58961 | 32818 ft | 484 kts | 214° |
| 2026-05-07 22:18 | 16.59792 | 82.53319 | 32821 ft | 484 kts | 214° |
| 2026-05-07 22:19 | 16.54102 | 82.49534 | 32820 ft | 484 kts | 214° |
| 2026-05-07 22:19 | 16.48421 | 82.45757 | 32819 ft | 485 kts | 214° |
| 2026-05-07 22:20 | 16.42722 | 82.41972 | 32823 ft | 485 kts | 214° |
| 2026-05-07 22:20 | 16.37032 | 82.38195 | 32822 ft | 484 kts | 214° |
| 2026-05-07 22:21 | 16.31089 | 82.34252 | 32825 ft | 486 kts | 214° |
| 2026-05-07 22:21 | 16.25301 | 82.30415 | 32824 ft | 486 kts | 213° |
| 2026-05-07 22:22 | 16.19507 | 82.26578 | 32824 ft | 486 kts | 213° |
| 2026-05-07 22:22 | 16.13328 | 82.22488 | 32822 ft | 487 kts | 213° |
| 2026-05-07 22:23 | 16.07612 | 82.18707 | 32822 ft | 488 kts | 213° |
| 2026-05-07 22:23 | 16.01902 | 82.14933 | 32822 ft | 489 kts | 213° |
| 2026-05-07 22:24 | 15.96122 | 82.11115 | 32824 ft | 489 kts | 213° |
| 2026-05-07 22:24 | 15.90378 | 82.07324 | 32823 ft | 489 kts | 213° |
| 2026-05-07 22:25 | 15.84628 | 82.03530 | 32823 ft | 489 kts | 213° |
| 2026-05-07 22:25 | 15.78519 | 81.99411 | 32818 ft | 489 kts | 214° |
| 2026-05-07 22:26 | 15.72204 | 81.95148 | 32820 ft | 489 kts | 214° |
| 2026-05-07 22:26 | 15.65862 | 81.90872 | 32814 ft | 489 kts | 214° |
| 2026-05-07 22:27 | 15.59754 | 81.86759 | 32819 ft | 488 kts | 214° |
| 2026-05-07 22:27 | 15.53551 | 81.82605 | 32815 ft | 488 kts | 213° |
| 2026-05-07 22:28 | 15.47347 | 81.78557 | 32811 ft | 489 kts | 213° |
| 2026-05-07 22:28 | 15.41040 | 81.74443 | 32811 ft | 489 kts | 213° |
| 2026-05-07 22:29 | 15.35260 | 81.70673 | 32807 ft | 488 kts | 213° |
| 2026-05-07 22:29 | 15.29079 | 81.66643 | 32807 ft | 488 kts | 213° |
| 2026-05-07 22:30 | 15.23047 | 81.62711 | 32808 ft | 488 kts | 213° |
| 2026-05-07 22:30 | 15.17012 | 81.58781 | 32810 ft | 488 kts | 213° |